createdAt,value
2022-12-18T00:00:09.725Z,86.35
2022-12-18T00:02:43.336Z,86.69
2022-12-18T00:05:12.392Z,86.96
2022-12-18T00:07:40.372Z,87.05
2022-12-18T00:10:10.503Z,87.53
2022-12-18T00:12:38.496Z,87.32
2022-12-18T00:15:07.333Z,87.05
2022-12-18T00:17:35.276Z,87.21
2022-12-18T00:20:03.478Z,86.92
2022-12-18T00:22:31.411Z,86.70
2022-12-18T00:24:59.400Z,86.75
2022-12-18T00:27:28.766Z,86.66
2022-12-18T00:29:56.769Z,86.65
2022-12-18T00:32:24.768Z,86.69
2022-12-18T00:34:52.689Z,86.74
2022-12-18T00:37:20.694Z,86.74
2022-12-18T00:39:52.502Z,86.77
2022-12-18T00:42:38.872Z,87.01
2022-12-18T00:45:13.000Z,87.66
2022-12-18T00:47:41.832Z,87.82
2022-12-18T00:50:11.158Z,87.77
2022-12-18T00:52:39.238Z,87.73
2022-12-18T00:55:07.978Z,87.57
2022-12-18T00:57:36.186Z,87.49
2022-12-18T01:00:06.329Z,87.51
2022-12-18T01:02:35.883Z,87.47
2022-12-18T01:05:03.974Z,87.39
2022-12-18T01:07:32.039Z,87.11
2022-12-18T01:10:00.011Z,87.25
2022-12-18T01:12:28.184Z,87.50
2022-12-18T01:14:56.166Z,87.78
2022-12-18T01:17:24.227Z,87.74
2022-12-18T01:19:53.619Z,87.72
2022-12-18T01:22:21.624Z,87.78
2022-12-18T01:24:49.660Z,87.75
2022-12-18T01:27:17.653Z,87.81
2022-12-18T01:29:45.683Z,87.69
2022-12-18T01:32:13.697Z,87.66
2022-12-18T01:34:42.899Z,87.54
2022-12-18T01:37:12.408Z,87.53
2022-12-18T01:39:40.375Z,87.71
2022-12-18T01:42:14.824Z,87.89
2022-12-18T01:45:06.955Z,87.73
2022-12-18T01:47:40.267Z,87.73
2022-12-18T01:50:12.341Z,87.90
2022-12-18T01:52:44.292Z,88.06
2022-12-18T01:55:13.818Z,88.25
2022-12-18T01:57:43.435Z,88.24
2022-12-18T02:01:12.683Z,87.99
2022-12-18T02:03:43.407Z,87.93
2022-12-18T02:06:18.003Z,88.71
2022-12-18T02:09:00.197Z,88.51
2022-12-18T02:11:41.739Z,88.75
2022-12-18T02:14:20.337Z,89.12
2022-12-18T02:16:54.989Z,89.29
2022-12-18T02:19:41.965Z,89.25
2022-12-18T02:22:27.090Z,89.13
2022-12-18T02:25:06.022Z,89.12
2022-12-18T02:27:37.270Z,89.40
2022-12-18T02:30:08.206Z,89.36
2022-12-18T02:32:41.962Z,89.25
2022-12-18T02:35:15.838Z,89.25
2022-12-18T02:37:47.025Z,89.67
2022-12-18T02:40:19.337Z,89.84
2022-12-18T02:42:48.933Z,89.31
2022-12-18T02:45:19.827Z,89.53
2022-12-18T02:47:51.753Z,89.68
2022-12-18T02:50:32.825Z,89.64
2022-12-18T02:53:13.532Z,89.59
2022-12-18T02:55:55.791Z,89.35
2022-12-18T02:58:32.472Z,89.21
2022-12-18T03:01:16.153Z,89.34
2022-12-18T03:03:50.036Z,89.57
2022-12-18T03:06:25.062Z,89.64
2022-12-18T03:08:58.747Z,89.48
2022-12-18T03:11:49.350Z,89.59
2022-12-18T03:14:22.814Z,90.07
2022-12-18T03:16:56.253Z,90.51
2022-12-18T03:19:28.343Z,90.86
2022-12-18T03:22:03.356Z,90.89
2022-12-18T03:24:40.680Z,91.04
2022-12-18T03:27:14.829Z,91.00
2022-12-18T03:29:48.414Z,91.11
2022-12-18T03:32:27.204Z,90.83
2022-12-18T03:34:59.783Z,90.84
2022-12-18T03:37:32.535Z,91.00
2022-12-18T03:40:01.211Z,90.89
2022-12-18T03:42:38.817Z,91.45
2022-12-18T03:45:22.606Z,91.39
2022-12-18T03:48:00.706Z,91.67
2022-12-18T03:50:39.878Z,91.91
2022-12-18T03:53:17.553Z,91.86
2022-12-18T03:55:53.346Z,91.52
2022-12-18T03:58:26.631Z,91.45
2022-12-18T04:01:11.219Z,91.64
2022-12-18T04:03:43.887Z,91.99
2022-12-18T04:06:13.919Z,91.88
2022-12-18T04:08:44.221Z,92.13
2022-12-18T04:11:17.284Z,92.24
2022-12-18T04:13:47.165Z,92.30
2022-12-18T04:16:25.738Z,92.63
2022-12-18T04:18:57.050Z,92.60
2022-12-18T04:21:29.317Z,92.48
2022-12-18T04:23:57.362Z,92.10
2022-12-18T04:26:25.477Z,91.86
2022-12-18T04:29:19.611Z,91.88
2022-12-18T04:31:48.957Z,91.36
2022-12-18T04:34:17.991Z,90.70
2022-12-18T04:36:51.428Z,91.61
2022-12-18T04:39:19.769Z,91.80
2022-12-18T04:41:54.890Z,91.56
2022-12-18T04:44:22.884Z,91.60
2022-12-18T04:46:53.161Z,91.96
2022-12-18T04:49:21.696Z,91.49
2022-12-18T04:51:49.664Z,91.46
2022-12-18T04:54:17.895Z,91.93
2022-12-18T04:56:45.836Z,91.79
2022-12-18T04:59:15.377Z,91.54
2022-12-18T05:01:43.382Z,91.30
2022-12-18T05:04:13.675Z,91.41
2022-12-18T05:06:41.689Z,91.41
2022-12-18T05:09:09.746Z,91.99
2022-12-18T05:11:37.734Z,91.77
2022-12-18T05:14:05.988Z,91.09
2022-12-18T05:16:34.114Z,89.94
2022-12-18T05:19:02.075Z,90.25
2022-12-18T05:21:31.495Z,90.55
2022-12-18T05:24:06.063Z,90.69
2022-12-18T05:26:34.105Z,90.81
2022-12-18T05:29:02.085Z,91.02
2022-12-18T05:31:32.408Z,91.26
2022-12-18T05:34:03.992Z,91.60
2022-12-18T05:36:33.691Z,91.45
2022-12-18T05:39:02.229Z,91.33
2022-12-18T05:41:30.587Z,91.07
2022-12-18T05:43:58.545Z,91.00
2022-12-18T05:46:26.752Z,90.74
2022-12-18T05:48:54.818Z,90.48
2022-12-18T05:51:24.407Z,90.99
2022-12-18T05:53:54.009Z,91.89
2022-12-18T05:56:25.192Z,92.44
2022-12-18T05:58:55.033Z,92.72
2022-12-18T06:01:27.556Z,92.93
2022-12-18T06:03:56.384Z,92.99
2022-12-18T06:06:26.295Z,92.99
2022-12-18T06:08:56.214Z,92.71
2022-12-18T06:11:26.671Z,92.17
2022-12-18T06:13:58.716Z,91.95
2022-12-18T06:16:27.797Z,91.97
2022-12-18T06:18:57.834Z,91.95
2022-12-18T06:21:25.888Z,92.53
2022-12-18T06:23:55.271Z,92.68
2022-12-18T06:26:28.026Z,92.51
2022-12-18T06:28:56.897Z,92.44
2022-12-18T06:31:25.390Z,92.07
2022-12-18T06:33:53.612Z,92.24
2022-12-18T06:36:22.090Z,92.64
2022-12-18T06:38:50.240Z,92.90
2022-12-18T06:41:22.178Z,92.73
2022-12-18T06:43:55.693Z,92.47
2022-12-18T06:46:24.990Z,92.40
2022-12-18T06:48:53.012Z,92.26
2022-12-18T06:51:21.982Z,92.40
2022-12-18T06:53:50.172Z,92.64
2022-12-18T06:56:19.876Z,92.98
2022-12-18T06:58:48.078Z,92.23
2022-12-18T07:01:16.187Z,91.89
2022-12-18T07:03:45.154Z,91.84
2022-12-18T07:06:18.379Z,92.03
2022-12-18T07:08:48.806Z,92.34
2022-12-18T07:11:18.114Z,92.46
2022-12-18T07:13:48.403Z,92.52
2022-12-18T07:16:24.853Z,92.27
2022-12-18T07:18:53.981Z,92.47
2022-12-18T07:21:22.388Z,92.67
2022-12-18T07:23:50.607Z,92.32
2022-12-18T07:26:20.915Z,92.10
2022-12-18T07:28:50.635Z,90.82
2022-12-18T07:31:21.581Z,89.14
2022-12-18T07:33:50.939Z,89.91
2022-12-18T07:36:19.569Z,90.38
2022-12-18T07:38:50.233Z,90.39
2022-12-18T07:41:19.744Z,91.02
2022-12-18T07:43:48.017Z,91.48
2022-12-18T07:46:18.252Z,91.88
2022-12-18T07:48:49.743Z,91.81
2022-12-18T07:51:19.216Z,91.39
2022-12-18T07:53:52.019Z,91.22
2022-12-18T07:56:27.824Z,91.41
2022-12-18T07:58:57.414Z,91.15
2022-12-18T08:01:27.334Z,91.13
2022-12-18T08:03:55.672Z,91.14
2022-12-18T08:06:24.463Z,90.85
2022-12-18T08:08:54.584Z,90.88
2022-12-18T08:11:23.661Z,90.89
2022-12-18T08:13:51.882Z,90.48
2022-12-18T08:16:20.893Z,90.58
2022-12-18T08:18:50.961Z,90.77
2022-12-18T08:21:22.243Z,90.87
2022-12-18T08:23:51.683Z,90.34
2022-12-18T08:26:21.005Z,89.86
2022-12-18T08:28:49.999Z,88.53
2022-12-18T08:31:19.455Z,88.81
2022-12-18T08:33:50.115Z,88.18
2022-12-18T08:36:20.133Z,88.20
2022-12-18T08:38:48.584Z,86.81
2022-12-18T08:41:19.242Z,86.38
2022-12-18T08:44:04.973Z,86.82
2022-12-18T08:46:37.549Z,86.45
2022-12-18T08:49:08.098Z,86.10
2022-12-18T08:51:38.275Z,86.45
2022-12-18T08:54:07.595Z,86.25
2022-12-18T08:56:36.154Z,85.72
2022-12-18T08:59:05.527Z,85.86
2022-12-18T09:01:33.805Z,84.83
2022-12-18T09:04:03.443Z,86.59
2022-12-18T09:06:32.949Z,81.93
2022-12-18T09:09:02.828Z,80.97
2022-12-18T09:11:34.596Z,79.55
2022-12-18T09:14:03.676Z,79.69
2022-12-18T09:16:36.015Z,79.08
2022-12-18T09:19:06.080Z,79.28
2022-12-18T09:21:36.903Z,80.47
2022-12-18T09:24:08.647Z,79.70
2022-12-18T09:26:37.966Z,78.85
2022-12-18T09:29:08.244Z,77.48
2022-12-18T09:31:36.878Z,75.69
2022-12-18T09:34:04.933Z,76.05
2022-12-18T09:36:33.265Z,75.18
2022-12-18T09:39:05.106Z,74.28
2022-12-18T09:41:46.775Z,72.01
2022-12-18T09:44:28.437Z,73.70
2022-12-18T09:47:12.223Z,72.82
2022-12-18T09:49:44.902Z,73.06
2022-12-18T09:52:17.879Z,72.85
2022-12-18T09:54:48.852Z,73.43
2022-12-18T09:57:21.736Z,73.10
2022-12-18T09:59:56.565Z,72.06
2022-12-18T10:02:27.044Z,70.79
2022-12-18T10:05:09.588Z,72.19
2022-12-18T10:07:50.013Z,72.54
2022-12-18T10:10:32.819Z,70.23
2022-12-18T10:13:11.198Z,71.84
2022-12-18T10:15:44.611Z,72.66
2022-12-18T10:18:28.719Z,72.21
2022-12-18T10:21:02.138Z,71.49
2022-12-18T10:23:35.636Z,72.03
2022-12-18T10:26:06.769Z,72.06
2022-12-18T10:28:41.229Z,73.06
2022-12-18T10:31:14.993Z,71.32
2022-12-18T10:33:43.090Z,70.90
2022-12-18T10:36:11.374Z,69.01
2022-12-18T10:38:40.462Z,69.99
2022-12-18T10:41:27.736Z,70.03
2022-12-18T10:44:20.213Z,70.07
2022-12-18T10:46:50.195Z,70.04
2022-12-18T10:49:24.383Z,65.30
2022-12-18T10:51:54.147Z,65.07
2022-12-18T10:54:25.083Z,65.02
2022-12-18T10:56:53.359Z,66.21
2022-12-18T10:59:22.775Z,65.81
2022-12-18T11:01:53.979Z,65.71
2022-12-18T11:04:24.498Z,65.50
2022-12-18T11:07:00.770Z,67.44
2022-12-18T11:09:30.083Z,67.13
2022-12-18T11:12:00.360Z,69.14
2022-12-18T11:14:32.103Z,67.87
2022-12-18T11:17:31.851Z,68.48
2022-12-18T11:19:55.522Z,67.96
2022-12-18T11:22:27.569Z,69.18
2022-12-18T11:25:30.918Z,66.93
2022-12-18T11:27:51.585Z,67.05
2022-12-18T11:30:27.151Z,66.53
2022-12-18T11:32:59.654Z,68.46
2022-12-18T11:35:39.006Z,68.72
2022-12-18T11:38:24.386Z,68.31
2022-12-18T11:40:58.769Z,69.74
2022-12-18T11:43:37.808Z,68.59
2022-12-18T11:46:16.070Z,69.68
2022-12-18T11:48:52.332Z,69.39
2022-12-18T11:51:27.943Z,67.69
2022-12-18T11:54:00.284Z,69.36
2022-12-18T11:56:34.805Z,68.36
2022-12-18T11:59:15.081Z,67.31
2022-12-18T12:01:53.971Z,66.52
2022-12-18T12:04:43.314Z,66.53
2022-12-18T12:07:33.784Z,63.00
2022-12-18T12:10:14.760Z,64.94
2022-12-18T12:13:05.335Z,63.39
2022-12-18T12:15:45.677Z,63.02
2022-12-18T12:18:24.893Z,63.38
2022-12-18T12:21:02.240Z,61.17
2022-12-18T12:23:38.381Z,60.16
2022-12-18T12:26:10.587Z,61.59
2022-12-18T12:28:55.767Z,62.75
2022-12-18T12:31:32.863Z,62.28
2022-12-18T12:34:09.204Z,62.69
2022-12-18T12:36:47.554Z,61.49
2022-12-18T12:39:20.393Z,60.95
2022-12-18T12:42:06.588Z,61.75
2022-12-18T12:44:43.930Z,60.30
2022-12-18T12:47:17.976Z,60.27
2022-12-18T12:49:49.975Z,60.69
2022-12-18T12:52:29.721Z,59.48
2022-12-18T12:55:03.724Z,58.31
2022-12-18T12:57:39.739Z,59.40
2022-12-18T13:00:14.134Z,59.00
2022-12-18T13:02:49.601Z,58.40
2022-12-18T13:05:26.139Z,60.00
2022-12-18T13:07:59.317Z,61.01
2022-12-18T13:10:36.199Z,59.91
2022-12-18T13:13:07.277Z,59.22
2022-12-18T13:15:42.356Z,61.04
2022-12-18T13:18:17.869Z,60.49
2022-12-18T13:20:55.157Z,57.85
2022-12-18T13:23:41.634Z,60.07
2022-12-18T13:26:35.364Z,58.92
2022-12-18T13:29:05.363Z,59.96
2022-12-18T13:32:10.338Z,61.19
2022-12-18T13:34:38.576Z,60.50
2022-12-18T13:37:46.544Z,58.89
2022-12-18T13:41:00.258Z,60.63
2022-12-18T13:43:35.917Z,59.55
2022-12-18T13:46:20.073Z,59.71
2022-12-18T13:48:54.314Z,60.98
2022-12-18T13:51:23.287Z,60.00
2022-12-18T13:53:55.816Z,64.23
2022-12-18T13:56:26.914Z,64.09
2022-12-18T13:59:18.532Z,64.30
2022-12-18T14:01:48.922Z,66.12
2022-12-18T14:04:26.339Z,66.11
2022-12-18T14:06:58.622Z,66.90
2022-12-18T14:09:31.089Z,66.74
2022-12-18T14:12:20.574Z,67.30
2022-12-18T14:14:53.078Z,67.66
2022-12-18T14:17:23.234Z,67.88
2022-12-18T14:19:53.237Z,67.91
2022-12-18T14:22:23.805Z,68.64
2022-12-18T14:25:17.215Z,68.84
2022-12-18T14:27:49.138Z,68.06
2022-12-18T14:30:28.196Z,69.34
2022-12-18T14:33:03.802Z,70.19
2022-12-18T14:35:32.521Z,70.97
2022-12-18T14:38:23.560Z,71.72
2022-12-18T14:40:56.797Z,71.65
2022-12-18T14:43:25.093Z,71.99
2022-12-18T14:45:53.707Z,72.44
2022-12-18T14:48:26.776Z,72.40
2022-12-18T14:51:00.608Z,73.90
2022-12-18T14:53:36.697Z,74.65
2022-12-18T14:56:15.779Z,74.98
2022-12-18T14:58:48.586Z,75.41
2022-12-18T15:01:26.304Z,75.22
2022-12-18T15:03:55.874Z,74.95
2022-12-18T15:06:30.271Z,74.56
2022-12-18T15:08:58.496Z,74.82
2022-12-18T15:11:36.903Z,74.35
2022-12-18T15:14:24.443Z,73.87
2022-12-18T15:16:55.855Z,74.79
2022-12-18T15:19:27.980Z,75.81
2022-12-18T15:21:58.123Z,76.10
2022-12-18T15:24:32.351Z,76.18
2022-12-18T15:27:02.566Z,76.60
2022-12-18T15:29:30.634Z,77.52
2022-12-18T15:32:03.365Z,78.80
2022-12-18T15:34:32.113Z,79.32
2022-12-18T15:37:00.225Z,79.57
2022-12-18T15:39:28.325Z,79.81
2022-12-18T15:42:13.730Z,79.15
2022-12-18T15:44:43.183Z,78.60
2022-12-18T15:47:14.173Z,79.03
2022-12-18T15:49:42.392Z,79.45
2022-12-18T15:52:26.989Z,79.46
2022-12-18T15:55:12.600Z,78.66
2022-12-18T15:57:42.649Z,78.76
2022-12-18T16:00:14.458Z,78.98
2022-12-18T16:02:42.906Z,79.16
2022-12-18T16:05:18.082Z,79.60
2022-12-18T16:07:46.216Z,80.15
2022-12-18T16:10:14.381Z,79.45
2022-12-18T16:12:43.718Z,78.72
2022-12-18T16:15:24.556Z,79.48
2022-12-18T16:17:53.749Z,80.37
2022-12-18T16:20:23.973Z,81.83
2022-12-18T16:22:52.153Z,82.33
2022-12-18T16:25:22.379Z,82.08
2022-12-18T16:27:50.961Z,82.83
2022-12-18T16:30:22.641Z,82.47
2022-12-18T16:32:51.114Z,82.09
2022-12-18T16:35:19.596Z,82.94
2022-12-18T16:37:47.612Z,83.42
2022-12-18T16:40:17.698Z,83.07
2022-12-18T16:42:47.416Z,83.21
2022-12-18T16:45:22.080Z,82.99
2022-12-18T16:47:52.330Z,82.48
2022-12-18T16:50:20.460Z,82.51
2022-12-18T16:52:48.608Z,83.22
2022-12-18T16:55:16.842Z,82.14
2022-12-18T16:57:44.943Z,82.14
2022-12-18T17:00:14.496Z,83.02
2022-12-18T17:02:42.850Z,82.35
2022-12-18T17:05:12.847Z,82.10
2022-12-18T17:07:41.092Z,81.83
2022-12-18T17:10:10.127Z,82.33
2022-12-18T17:12:38.190Z,83.47
2022-12-18T17:15:09.884Z,82.94
2022-12-18T17:17:37.971Z,83.14
2022-12-18T17:20:06.771Z,85.30
2022-12-18T17:22:36.156Z,85.16
2022-12-18T17:25:04.543Z,84.66
2022-12-18T17:27:32.613Z,83.89
2022-12-18T17:30:00.646Z,84.47
2022-12-18T17:32:29.165Z,84.78
2022-12-18T17:34:57.274Z,85.25
2022-12-18T17:37:25.680Z,85.94
2022-12-18T17:39:55.718Z,86.01
2022-12-18T17:42:23.896Z,86.12
2022-12-18T17:44:52.329Z,86.28
2022-12-18T17:47:20.393Z,85.63
2022-12-18T17:49:51.229Z,85.56
2022-12-18T17:52:20.091Z,85.43
2022-12-18T17:54:50.166Z,84.97
2022-12-18T17:57:22.525Z,85.12
2022-12-18T17:59:51.914Z,85.63
2022-12-18T18:02:20.305Z,85.70
2022-12-18T18:04:49.254Z,85.94
2022-12-18T18:07:17.381Z,86.93
2022-12-18T18:09:47.714Z,87.11
2022-12-18T18:12:33.204Z,86.88
2022-12-18T18:15:06.080Z,86.60
2022-12-18T18:17:34.240Z,88.05
2022-12-18T18:20:02.513Z,87.82
2022-12-18T18:22:30.599Z,87.77
2022-12-18T18:24:59.356Z,87.53
2022-12-18T18:27:27.487Z,87.32
2022-12-18T18:29:55.644Z,88.21
2022-12-18T18:32:25.762Z,88.69
2022-12-18T18:34:54.207Z,90.18
2022-12-18T18:37:22.571Z,88.56
2022-12-18T18:39:52.685Z,88.53
2022-12-18T18:42:22.099Z,88.88
2022-12-18T18:44:50.308Z,88.08
2022-12-18T18:47:18.427Z,87.16
2022-12-18T18:49:48.170Z,87.76
2022-12-18T18:52:16.744Z,87.98
2022-12-18T18:55:10.827Z,88.04
2022-12-18T18:57:34.313Z,87.58
2022-12-18T19:00:02.495Z,87.24
2022-12-18T19:02:31.282Z,87.06
2022-12-18T19:05:00.802Z,87.46
2022-12-18T19:07:30.513Z,87.47
2022-12-18T19:10:04.197Z,87.93
2022-12-18T19:12:51.813Z,87.99
2022-12-18T19:15:20.130Z,88.35
2022-12-18T19:17:48.696Z,88.52
2022-12-18T19:20:18.421Z,88.48
2022-12-18T19:22:55.500Z,87.82
2022-12-18T19:25:38.112Z,88.56
2022-12-18T19:28:17.373Z,88.64
2022-12-18T19:30:57.268Z,89.55
2022-12-18T19:33:44.654Z,90.04
2022-12-18T19:36:20.005Z,90.25
2022-12-18T19:38:53.118Z,90.26
2022-12-18T19:41:22.435Z,89.74
2022-12-18T19:43:51.889Z,89.12
2022-12-18T19:46:22.567Z,88.33
2022-12-18T19:48:51.538Z,88.48
2022-12-18T19:51:26.633Z,88.55
2022-12-18T19:53:58.964Z,88.07
2022-12-18T19:56:30.155Z,87.89
2022-12-18T19:58:58.677Z,88.84
2022-12-18T20:01:30.145Z,88.99
2022-12-18T20:03:59.755Z,89.39
2022-12-18T20:06:32.236Z,89.47
2022-12-18T20:09:04.795Z,89.25
2022-12-18T20:11:38.394Z,89.46
2022-12-18T20:14:10.540Z,89.83
2022-12-18T20:16:39.478Z,89.98
2022-12-18T20:19:08.947Z,89.93
2022-12-18T20:21:39.623Z,90.14
2022-12-18T20:24:09.235Z,90.14
2022-12-18T20:26:37.410Z,90.08
2022-12-18T20:29:06.343Z,90.26
2022-12-18T20:31:34.742Z,90.41
2022-12-18T20:34:03.772Z,90.54
2022-12-18T20:36:36.577Z,90.53
2022-12-18T20:39:09.988Z,90.32
2022-12-18T20:41:39.455Z,89.62
2022-12-18T20:44:21.558Z,89.45
2022-12-18T20:46:53.028Z,89.40
2022-12-18T20:49:21.347Z,89.28
2022-12-18T20:51:52.516Z,89.26
2022-12-18T20:54:22.875Z,89.61
2022-12-18T20:56:51.585Z,89.58
2022-12-18T20:59:20.023Z,89.57
2022-12-18T21:01:50.317Z,89.49
2022-12-18T21:04:19.143Z,89.20
2022-12-18T21:06:52.064Z,89.25
2022-12-18T21:09:24.615Z,89.03
2022-12-18T21:12:13.217Z,89.30
2022-12-18T21:14:43.522Z,89.60
2022-12-18T21:17:12.117Z,89.45
2022-12-18T21:19:40.678Z,89.86
2022-12-18T21:22:10.965Z,89.68
2022-12-18T21:24:40.875Z,89.46
2022-12-18T21:27:09.263Z,89.17
2022-12-18T21:29:41.040Z,88.95
2022-12-18T21:32:10.301Z,89.06
2022-12-18T21:34:40.334Z,89.05
2022-12-18T21:37:11.722Z,88.84
2022-12-18T21:39:41.912Z,88.73
2022-12-18T21:42:29.215Z,88.66
2022-12-18T21:44:57.494Z,89.32
2022-12-18T21:47:25.998Z,90.01
2022-12-18T21:49:54.869Z,90.37
2022-12-18T21:52:27.248Z,90.31
2022-12-18T21:55:08.961Z,90.57
2022-12-18T21:57:38.527Z,90.89
2022-12-18T22:00:08.334Z,90.68
2022-12-18T22:02:42.716Z,90.85
2022-12-18T22:05:11.119Z,91.30
2022-12-18T22:07:39.969Z,91.60
2022-12-18T22:10:10.500Z,91.42
2022-12-18T22:12:44.403Z,91.50
2022-12-18T22:15:21.538Z,91.05
2022-12-18T22:18:00.152Z,90.74
2022-12-18T22:20:30.020Z,89.82
2022-12-18T22:22:58.649Z,90.32
2022-12-18T22:25:29.096Z,91.54
2022-12-18T22:28:14.997Z,91.16
2022-12-18T22:30:44.342Z,90.58
2022-12-18T22:33:12.635Z,90.31
2022-12-18T22:35:41.100Z,90.66
2022-12-18T22:38:09.443Z,90.72
2022-12-18T22:40:38.899Z,90.34
2022-12-18T22:43:07.327Z,90.09
2022-12-18T22:45:38.389Z,89.88
2022-12-18T22:48:07.359Z,89.80
2022-12-18T22:50:35.612Z,89.37
2022-12-18T22:53:03.779Z,89.20
2022-12-18T22:55:36.332Z,89.01
2022-12-18T22:58:05.838Z,89.06
2022-12-18T23:00:33.829Z,89.35
2022-12-18T23:03:02.293Z,89.31
2022-12-18T23:05:31.486Z,89.25
2022-12-18T23:08:00.022Z,89.20
2022-12-18T23:10:29.002Z,89.28
2022-12-18T23:12:57.299Z,88.54
2022-12-18T23:15:28.216Z,88.98
2022-12-18T23:17:59.002Z,88.87
2022-12-18T23:20:27.630Z,88.20
2022-12-18T23:22:55.734Z,88.66
2022-12-18T23:25:24.126Z,88.83
2022-12-18T23:27:52.328Z,88.32
2022-12-18T23:30:20.392Z,88.33
2022-12-18T23:32:49.848Z,88.39
2022-12-18T23:35:18.622Z,88.41
2022-12-18T23:38:03.924Z,88.93
2022-12-18T23:40:36.062Z,89.63
2022-12-18T23:43:04.201Z,90.34
2022-12-18T23:45:32.277Z,90.85
2022-12-18T23:48:01.712Z,91.13
2022-12-18T23:50:30.355Z,91.22
2022-12-18T23:53:04.596Z,91.53
2022-12-18T23:55:33.649Z,91.11
2022-12-18T23:58:01.668Z,90.76
